Time;durP1;ratioP1;P1;durP2;ratioP2;P2;SDS_P1;SDS_P2;PMS_P1;PMS_P2;Temp;Humidity;BMP_temperature;BMP_pressure;BME280_temperature;BME280_humidity;BME280_pressure;Samples;Min_cycle;Max_cycle;Signal;HPM_P1;HPM_P2
2024/03/06 00:01:24;;;;;;;;;;;;;;;20.42;33.97;101315.38;4268219;27;19932;-54
2024/03/06 00:03:25;;;;;;;;;;;;;;;20.42;34.13;101320.72;4268338;27;19997;-56
2024/03/06 00:05:27;;;;;;;;;;;;;;;20.41;34.20;101318.16;4267916;27;19944;-55
2024/03/06 00:07:29;;;;;;;;;;;;;;;20.40;34.28;101322.66;4268119;27;19925;-55
2024/03/06 00:09:30;;;;;;;;;;;;;;;20.41;34.47;101324.38;4267875;27;19930;-55
2024/03/06 00:11:32;;;;;;;;;;;;;;;20.40;34.21;101324.47;4268212;27;19919;-54
2024/03/06 00:13:34;;;;;;;;;;;;;;;20.36;34.29;101322.97;4267918;27;19925;-55
2024/03/06 00:15:35;;;;;;;;;;;;;;;20.38;34.49;101323.75;4267842;27;19919;-55
2024/03/06 00:17:37;;;;;;;;;;;;;;;20.35;34.30;101327.47;4267913;27;20337;-55
2024/03/06 00:19:39;;;;;;;;;;;;;;;20.35;34.51;101330.16;4268336;27;19926;-54
2024/03/06 00:21:41;;;;;;;;;;;;;;;20.36;34.30;101329.16;4268145;27;19923;-54
2024/03/06 00:23:42;;;;;;;;;;;;;;;20.38;34.53;101335.28;4267568;27;19919;-55
2024/03/06 00:25:43;;;;;;;;;;;;;;;20.40;34.45;101330.69;4267817;27;20363;-55
2024/03/06 00:27:45;;;;;;;;;;;;;;;20.40;34.25;101333.34;4267631;27;19957;-56
2024/03/06 00:29:47;;;;;;;;;;;;;;;20.40;34.54;101332.47;4267925;27;19918;-56
2024/03/06 00:31:48;;;;;;;;;;;;;;;20.41;34.50;101340.41;4267901;27;19919;-57
2024/03/06 00:33:50;;;;;;;;;;;;;;;20.37;34.30;101346.91;4267888;27;19919;-57
2024/03/06 00:35:51;;;;;;;;;;;;;;;20.36;34.30;101337.19;4267660;27;20361;-57
2024/03/06 00:37:53;;;;;;;;;;;;;;;20.37;34.54;101346.06;4267355;27;20320;-56
2024/03/06 00:39:55;;;;;;;;;;;;;;;20.36;34.61;101347.03;4267845;27;19958;-56
2024/03/06 00:41:57;;;;;;;;;;;;;;;20.35;34.59;101342.63;4267774;27;19931;-54
2024/03/06 00:43:58;;;;;;;;;;;;;;;20.33;34.61;101344.53;4267827;27;19926;-56
2024/03/06 00:46:00;;;;;;;;;;;;;;;20.35;34.47;101351.53;4267516;27;19919;-55
2024/03/06 00:48:01;;;;;;;;;;;;;;;20.40;34.27;101352.06;4267679;27;19923;-55
2024/03/06 00:50:07;;;;;;;;;;;;;;;20.41;34.50;101348.44;4267326;27;19919;-53
2024/03/06 00:52:09;;;;;;;;;;;;;;;20.40;34.35;101353.84;4267772;27;19991;-55
2024/03/06 00:54:10;;;;;;;;;;;;;;;20.39;34.51;101353.00;4267204;27;19926;-57
2024/03/06 00:56:12;;;;;;;;;;;;;;;20.36;34.27;101350.53;4267470;27;19926;-56
2024/03/06 00:58:13;;;;;;;;;;;;;;;20.35;34.74;101359.53;4267211;27;19951;-57
2024/03/06 01:00:16;;;;;;;;;;;;;;;20.36;34.69;101360.38;4267416;27;19919;-57
2024/03/06 01:02:17;;;;;;;;;;;;;;;20.35;34.34;101359.53;4267198;27;19961;-56
2024/03/06 01:04:19;;;;;;;;;;;;;;;20.34;34.31;101354.28;4267261;27;19944;-55
2024/03/06 01:06:20;;;;;;;;;;;;;;;20.31;34.75;101352.66;4266832;27;19923;-56
2024/03/06 01:08:24;;;;;;;;;;;;;;;20.35;34.55;101359.53;4266932;27;20302;-57
2024/03/06 01:10:26;;;;;;;;;;;;;;;20.35;34.66;101356.88;4248790;27;19935;-56
2024/03/06 01:12:27;;;;;;;;;;;;;;;20.39;34.55;101357.47;4267420;27;20006;-57
2024/03/06 01:14:29;;;;;;;;;;;;;;;20.39;34.67;101361.03;4267240;27;19919;-56
2024/03/06 01:16:30;;;;;;;;;;;;;;;20.37;34.48;101365.59;4267168;27;20340;-57
2024/03/06 01:18:32;;;;;;;;;;;;;;;20.36;34.38;101363.06;4267231;27;19979;-55
2024/03/06 01:20:34;;;;;;;;;;;;;;;20.34;34.63;101365.84;4266911;27;19926;-56
2024/03/06 01:22:35;;;;;;;;;;;;;;;20.35;34.46;101370.22;4266679;27;19926;-57
2024/03/06 01:24:37;;;;;;;;;;;;;;;20.35;34.47;101372.91;4267033;27;19931;-55
2024/03/06 01:26:40;;;;;;;;;;;;;;;20.34;34.66;101372.97;4267104;27;19919;-52
2024/03/06 01:28:41;;;;;;;;;;;;;;;20.34;34.69;101375.63;4266704;27;20294;-57
2024/03/06 01:30:43;;;;;;;;;;;;;;;20.35;34.67;101369.34;4266913;27;19919;-58
2024/03/06 01:32:44;;;;;;;;;;;;;;;20.35;34.75;101375.56;4266984;27;19926;-57
2024/03/06 01:34:46;;;;;;;;;;;;;;;20.33;34.49;101369.47;4266838;27;19926;-57
2024/03/06 01:36:48;;;;;;;;;;;;;;;20.33;34.86;101374.81;4266292;27;19918;-56
2024/03/06 01:38:49;;;;;;;;;;;;;;;20.36;34.37;101373.72;4266888;27;19923;-55
2024/03/06 01:40:51;;;;;;;;;;;;;;;20.38;34.58;101371.81;4266897;27;19923;-53
2024/03/06 01:42:52;;;;;;;;;;;;;;;20.36;34.56;101369.25;4266705;27;20373;-56
2024/03/06 01:44:54;;;;;;;;;;;;;;;20.35;34.67;101367.56;4266877;27;19971;-56
2024/03/06 01:46:55;;;;;;;;;;;;;;;20.39;34.43;101371.72;4266677;27;19919;-56
2024/03/06 01:48:58;;;;;;;;;;;;;;;20.36;34.76;101368.41;4266434;27;19919;-56
2024/03/06 01:51:04;;;;;;;;;;;;;;;20.36;34.56;101363.88;4266227;27;19919;-56
2024/03/06 01:53:06;;;;;;;;;;;;;;;20.36;34.73;101369.25;4266690;27;19929;-57
2024/03/06 01:55:09;;;;;;;;;;;;;;;20.35;34.79;101361.34;4266597;27;19923;-57
2024/03/06 01:57:13;;;;;;;;;;;;;;;20.33;34.57;101363.25;4266661;27;19955;-56
2024/03/06 01:59:18;;;;;;;;;;;;;;;20.37;34.56;101368.28;4266246;27;20017;-57
2024/03/06 02:01:32;;;;;;;;;;;;;;;20.37;34.67;101365.59;4266277;27;20574;-57
2024/03/06 02:03:34;;;;;;;;;;;;;;;20.36;34.46;101365.72;4266152;27;20393;-57
2024/03/06 02:05:35;;;;;;;;;;;;;;;20.33;34.56;101366.78;4265976;27;20010;-57
2024/03/06 02:07:40;;;;;;;;;;;;;;;20.33;34.68;101363.25;4266141;27;19919;-57
2024/03/06 02:09:42;;;;;;;;;;;;;;;20.34;34.85;101360.50;4265998;27;19930;-57
2024/03/06 02:11:44;;;;;;;;;;;;;;;20.38;34.73;101364.66;4266143;27;19923;-57
2024/03/06 02:13:46;;;;;;;;;;;;;;;20.36;34.68;101363.88;4266301;27;19919;-57
2024/03/06 02:15:47;;;;;;;;;;;;;;;20.32;34.38;101362.41;4266140;27;19926;-56
2024/03/06 02:17:49;;;;;;;;;;;;;;;20.32;34.60;101365.06;4265546;27;20398;-56
2024/03/06 02:19:51;;;;;;;;;;;;;;;20.32;34.69;101373.09;4265614;27;19923;-57
2024/03/06 02:21:52;;;;;;;;;;;;;;;20.37;34.42;101373.63;4266061;27;19981;-57
2024/03/06 02:23:54;;;;;;;;;;;;;;;20.35;34.74;101370.22;4266127;27;20010;-57
2024/03/06 02:25:55;;;;;;;;;;;;;;;20.38;34.71;101372.66;4265785;27;20385;-57
2024/03/06 02:27:57;;;;;;;;;;;;;;;20.35;34.62;101372.91;4247611;27;20389;-55
2024/03/06 02:29:59;;;;;;;;;;;;;;;20.33;34.67;101373.94;4265915;27;20305;-57
2024/03/06 02:32:03;;;;;;;;;;;;;;;20.30;34.91;101371.47;4265880;27;19919;-57
2024/03/06 02:34:06;;;;;;;;;;;;;;;20.26;34.72;101371.66;4265316;27;20401;-57
2024/03/06 02:36:07;;;;;;;;;;;;;;;20.26;34.65;101376.16;4265889;27;19929;-57
2024/03/06 02:38:09;;;;;;;;;;;;;;;20.25;34.80;101372.63;4265627;27;20461;-57
2024/03/06 02:40:11;;;;;;;;;;;;;;;20.29;34.95;101373.28;4265794;27;19943;-58
2024/03/06 02:42:13;;;;;;;;;;;;;;;20.27;34.99;101373.38;4265684;27;19979;-57
2024/03/06 02:44:15;;;;;;;;;;;;;;;20.26;34.71;101376.16;4265724;27;19962;-57
2024/03/06 02:46:17;;;;;;;;;;;;;;;20.26;34.86;101368.16;4265710;27;19944;-57
2024/03/06 02:48:19;;;;;;;;;;;;;;;20.30;34.78;101382.16;4265292;27;19919;-55
2024/03/06 02:50:20;;;;;;;;;;;;;;;20.31;34.75;101376.72;4265490;27;19919;-56
2024/03/06 02:52:22;;;;;;;;;;;;;;;20.29;34.89;101375.09;4265540;27;20401;-56
2024/03/06 02:54:25;;;;;;;;;;;;;;;20.29;34.76;101375.94;4265584;27;20622;-57
2024/03/06 02:56:26;;;;;;;;;;;;;;;20.29;34.67;101375.09;4265428;27;20393;-57
2024/03/06 02:58:31;;;;;;;;;;;;;;;20.26;34.53;101369.00;4265415;27;19925;-57
2024/03/06 03:00:33;;;;;;;;;;;;;;;20.25;34.96;101375.28;4265381;27;19930;-57
2024/03/06 03:02:34;;;;;;;;;;;;;;;20.27;34.86;101376.06;4265324;27;19919;-57
2024/03/06 03:04:36;;;;;;;;;;;;;;;20.26;34.85;101379.69;4246603;27;19958;-57
2024/03/06 03:06:37;;;;;;;;;;;;;;;20.26;34.77;101378.84;4265005;27;19919;-55
2024/03/06 03:08:39;;;;;;;;;;;;;;;20.27;34.60;101383.22;4265184;27;19926;-58
2024/03/06 03:10:40;;;;;;;;;;;;;;;20.27;34.56;101383.22;4265248;27;20374;-61
2024/03/06 03:12:42;;;;;;;;;;;;;;;20.27;34.78;101384.06;4265192;27;19919;-57
2024/03/06 03:14:44;;;;;;;;;;;;;;;20.31;34.46;101391.91;4265359;27;19919;-57
2024/03/06 03:16:46;;;;;;;;;;;;;;;20.16;34.81;101364.34;4265294;27;19919;-57
2024/03/06 03:18:47;;;;;;;;;;;;;;;20.27;34.84;101388.56;4264911;27;19919;-58
2024/03/06 03:20:49;;;;;;;;;;;;;;;20.29;34.53;101380.44;4264945;27;19975;-57
2024/03/06 03:22:51;;;;;;;;;;;;;;;20.25;34.74;101390.47;4246977;27;19925;-57
2024/03/06 03:24:52;;;;;;;;;;;;;;;20.23;34.91;101387.03;4265144;27;19922;-53
2024/03/06 03:26:54;;;;;;;;;;;;;;;20.24;34.66;101389.63;4265227;27;19926;-57
2024/03/06 03:28:55;;;;;;;;;;;;;;;20.24;34.85;101392.31;4264934;27;20338;-57
2024/03/06 03:30:57;;;;;;;;;;;;;;;20.24;34.96;101389.63;4264367;27;20301;-57
2024/03/06 03:32:58;;;;;;;;;;;;;;;20.24;34.73;101391.44;4264723;27;19918;-57
2024/03/06 03:35:00;;;;;;;;;;;;;;;20.27;34.83;101388.56;4265125;27;20410;-57
2024/03/06 03:37:02;;;;;;;;;;;;;;;20.31;34.42;101390.06;4265037;27;20381;-57
2024/03/06 03:39:03;;;;;;;;;;;;;;;20.29;34.52;101391.97;4264825;27;19922;-57
2024/03/06 03:41:09;;;;;;;;;;;;;;;20.30;34.66;101400.84;4265063;27;19926;-57
2024/03/06 03:43:11;;;;;;;;;;;;;;;20.29;34.54;101397.31;4264834;27;19971;-57
2024/03/06 03:45:12;;;;;;;;;;;;;;;20.29;34.81;101396.47;4265054;27;19950;-57
2024/03/06 03:47:14;;;;;;;;;;;;;;;20.23;34.88;101395.94;4264512;27;20022;-57
2024/03/06 03:49:16;;;;;;;;;;;;;;;20.22;34.91;101396.00;4264684;27;20017;-56
2024/03/06 03:51:17;;;;;;;;;;;;;;;20.24;34.91;101397.63;4264929;27;19919;-56
2024/03/06 03:53:19;;;;;;;;;;;;;;;20.23;34.70;101395.94;4264865;27;20404;-57
2024/03/06 03:55:20;;;;;;;;;;;;;;;20.25;34.90;101401.16;4264823;27;19919;-57
2024/03/06 03:57:27;;;;;;;;;;;;;;;20.25;34.71;101399.31;4264717;27;19946;-57
2024/03/06 03:59:33;;;;;;;;;;;;;;;20.29;34.63;101388.44;4264871;27;20323;-58
2024/03/06 04:01:35;;;;;;;;;;;;;;;20.28;34.81;101398.28;4264370;27;19963;-57
2024/03/06 04:03:36;;;;;;;;;;;;;;;20.27;34.57;101394.75;4264542;27;20053;-57
2024/03/06 04:05:38;;;;;;;;;;;;;;;20.27;34.86;101399.25;4264705;27;19979;-54
2024/03/06 04:07:39;;;;;;;;;;;;;;;20.27;34.62;101408.09;4264704;27;19976;-57
2024/03/06 04:09:41;;;;;;;;;;;;;;;20.25;34.79;101404.66;4264748;27;19919;-56
2024/03/06 04:11:43;;;;;;;;;;;;;;;20.23;34.98;101409.28;4264770;27;19930;-56
2024/03/06 04:13:45;;;;;;;;;;;;;;;20.23;34.92;101411.94;4264834;27;20011;-56
2024/03/06 04:15:47;;;;;;;;;;;;;;;20.23;34.84;101413.75;4264246;27;19926;-57
2024/03/06 04:17:48;;;;;;;;;;;;;;;20.22;34.92;101410.22;4264497;27;20392;-56
2024/03/06 04:19:50;;;;;;;;;;;;;;;20.25;34.79;101406.50;4264797;27;19958;-56
2024/03/06 04:21:52;;;;;;;;;;;;;;;20.25;34.81;101417.19;4264671;27;19923;-57
2024/03/06 04:23:53;;;;;;;;;;;;;;;20.24;34.81;101418.13;4264673;27;19975;-57
2024/03/06 04:25:55;;;;;;;;;;;;;;;20.30;34.68;101414.22;4264625;27;19923;-56
2024/03/06 04:27:56;;;;;;;;;;;;;;;20.30;34.53;101422.22;4264424;27;19919;-57
2024/03/06 04:29:58;;;;;;;;;;;;;;;20.29;34.76;101417.84;4264476;27;19955;-56
2024/03/06 04:31:59;;;;;;;;;;;;;;;20.31;34.70;101415.94;4264498;27;19919;-57
2024/03/06 04:34:06;;;;;;;;;;;;;;;20.28;34.37;101425.00;4264557;27;20400;-56
2024/03/06 04:36:08;;;;;;;;;;;;;;;20.27;34.79;101424.13;4264689;27;19926;-57
2024/03/06 04:38:10;;;;;;;;;;;;;;;20.24;34.79;101424.34;4264501;27;20014;-58
2024/03/06 04:40:15;;;;;;;;;;;;;;;20.24;34.83;101426.16;4264436;27;19951;-55
2024/03/06 04:42:16;;;;;;;;;;;;;;;20.22;34.85;101428.06;4266809;27;20328;-57
2024/03/06 04:44:18;;;;;;;;;;;;;;;20.23;34.47;101435.13;4267369;27;20011;-58
2024/03/06 04:46:24;;;;;;;;;;;;;;;20.23;34.53;101436.00;4267734;27;19923;-57
2024/03/06 04:48:26;;;;;;;;;;;;;;;20.25;34.91;101433.22;4267805;27;20292;-57
2024/03/06 04:50:27;;;;;;;;;;;;;;;20.23;34.52;101438.66;4267384;27;19930;-57
2024/03/06 04:52:29;;;;;;;;;;;;;;;20.24;34.64;101436.84;4249094;27;20013;-56
2024/03/06 04:54:30;;;;;;;;;;;;;;;20.24;34.75;101442.19;4267624;27;20297;-56
2024/03/06 04:56:32;;;;;;;;;;;;;;;20.22;34.76;101444.06;4267503;27;19919;-55
2024/03/06 04:58:38;;;;;;;;;;;;;;;20.22;34.49;101449.41;4267440;27;20338;-56
2024/03/06 05:00:40;;;;;;;;;;;;;;;20.22;34.66;101442.28;4266905;27;19971;-56
2024/03/06 05:02:42;;;;;;;;;;;;;;;20.23;34.49;101449.34;4267168;27;19926;-56
2024/03/06 05:05:02;;;;;;;;;;;;;;;20.25;34.59;101450.06;4267414;27;20326;-56
2024/03/06 05:07:20;;;;;;;;;;;;;;;20.24;34.60;101453.72;4267409;27;20416;-57
2024/03/06 05:09:41;;;;;;;;;;;;;;;20.25;34.72;101450.06;4267268;27;19954;-57
2024/03/06 05:12:00;;;;;;;;;;;;;;;20.24;34.32;101463.53;4251312;27;19919;-57
2024/03/06 05:14:19;;;;;;;;;;;;;;;20.25;34.68;101466.09;4266692;27;19962;-57
2024/03/06 05:16:38;;;;;;;;;;;;;;;20.24;34.48;101471.56;4267106;27;19925;-57
2024/03/06 05:18:57;;;;;;;;;;;;;;;20.25;34.52;101478.63;4267135;27;19919;-57
2024/03/06 05:21:17;;;;;;;;;;;;;;;20.23;34.42;101470.72;4266935;27;19923;-57
2024/03/06 05:23:36;;;;;;;;;;;;;;;20.23;34.68;101481.41;4266904;27;19919;-57
2024/03/06 05:25:55;;;;;;;;;;;;;;;20.24;34.46;101477.78;4267029;27;19919;-57
2024/03/06 05:28:13;;;;;;;;;;;;;;;20.25;34.72;101482.13;4266598;27;19930;-55
2024/03/06 05:30:32;;;;;;;;;;;;;;;20.22;34.76;101487.69;4266693;27;19963;-56
2024/03/06 05:32:52;;;;;;;;;;;;;;;20.23;34.71;101494.75;4266839;27;19919;-56
2024/03/06 05:35:11;;;;;;;;;;;;;;;20.26;34.61;101496.38;4266666;27;19932;-57
2024/03/06 05:37:30;;;;;;;;;;;;;;;20.26;34.54;101497.22;4266802;27;20369;-57
2024/03/06 05:39:49;;;;;;;;;;;;;;;20.23;34.67;101494.75;4266850;27;19919;-57
2024/03/06 05:42:07;;;;;;;;;;;;;;;20.23;34.56;101497.41;4266550;27;19947;-57
2024/03/06 05:44:26;;;;;;;;;;;;;;;20.21;34.71;101504.66;4266650;27;20163;-57
2024/03/06 05:46:46;;;;;;;;;;;;;;;20.22;34.53;101503.72;4266668;27;19961;-57
2024/03/06 05:49:05;;;;;;;;;;;;;;;20.19;34.45;101506.56;4266472;27;19919;-58
2024/03/06 05:51:24;;;;;;;;;;;;;;;20.21;34.42;101501.16;4266434;27;20051;-57
2024/03/06 05:53:43;;;;;;;;;;;;;;;20.21;34.50;101512.69;4265383;27;19919;-56
2024/03/06 05:56:04;;;;;;;;;;;;;;;20.21;34.66;101504.66;4266519;27;19919;-56
2024/03/06 05:58:22;;;;;;;;;;;;;;;20.22;34.58;101514.41;4266064;27;19919;-57
2024/03/06 06:00:24;;;;;;;;;;;;;;;20.24;34.53;101516.97;4266611;27;19948;-57
2024/03/06 06:02:26;;;;;;;;;;;;;;;20.24;34.59;101523.19;4266185;27;20339;-56
2024/03/06 06:04:32;;;;;;;;;;;;;;;20.25;34.50;101519.53;4266773;27;20010;-58
2024/03/06 06:06:41;;;;;;;;;;;;;;;20.22;34.34;101524.22;4247610;27;19919;-57
2024/03/06 06:08:48;;;;;;;;;;;;;;;20.21;34.27;101528.69;4266415;27;20007;-57
2024/03/06 06:10:54;;;;;;;;;;;;;;;20.21;34.54;101527.84;4266253;27;19929;-56
2024/03/06 06:12:57;;;;;;;;;;;;;;;20.22;34.59;101526.88;4266233;27;19919;-57
2024/03/06 06:14:58;;;;;;;;;;;;;;;20.22;34.42;101527.75;4266232;27;20002;-56
2024/03/06 06:16:59;;;;;;;;;;;;;;;20.22;34.63;101535.75;4266292;27;20006;-56
2024/03/06 06:19:01;;;;;;;;;;;;;;;20.23;34.43;101534.81;4266219;27;19919;-57
2024/03/06 06:21:07;;;;;;;;;;;;;;;20.25;34.49;101545.41;4266297;27;19992;-57
2024/03/06 06:23:13;;;;;;;;;;;;;;;20.24;34.51;101539.22;4266097;27;20364;-57
2024/03/06 06:25:16;;;;;;;;;;;;;;;20.25;34.64;101537.38;4247719;27;20385;-56
2024/03/06 06:27:17;;;;;;;;;;;;;;;20.21;34.53;101541.22;4265633;27;19919;-55
2024/03/06 06:29:19;;;;;;;;;;;;;;;20.20;34.33;101540.34;4265948;27;20299;-56
2024/03/06 06:31:20;;;;;;;;;;;;;;;20.22;34.31;101541.09;4265739;27;19919;-56
2024/03/06 06:33:27;;;;;;;;;;;;;;;20.24;34.49;101541.88;4265734;27;20326;-56
2024/03/06 06:35:29;;;;;;;;;;;;;;;20.24;34.15;101541.00;4265886;27;20467;-56
2024/03/06 06:37:30;;;;;;;;;;;;;;;20.22;34.22;101542.91;4265880;27;20429;-57
2024/03/06 06:39:34;;;;;;;;;;;;;;;20.20;34.41;101547.50;4265818;27;19958;-56
2024/03/06 06:41:36;;;;;;;;;;;;;;;20.22;34.69;101550.91;4265574;27;19950;-56
2024/03/06 06:43:37;;;;;;;;;;;;;;;20.08;34.42;101527.75;4265707;27;20320;-56
2024/03/06 06:45:44;;;;;;;;;;;;;;;20.23;34.66;101563.31;4265575;27;19933;-57
2024/03/06 06:47:45;;;;;;;;;;;;;;;20.25;34.41;101569.44;4265562;27;19925;-56
2024/03/06 06:49:47;;;;;;;;;;;;;;;20.25;34.30;101569.44;4265851;27;19926;-56
2024/03/06 06:51:49;;;;;;;;;;;;;;;20.24;34.46;101573.06;4265597;27;19925;-56
2024/03/06 06:53:50;;;;;;;;;;;;;;;20.21;34.52;101573.25;4265669;27;19926;-57
2024/03/06 06:55:52;;;;;;;;;;;;;;;20.25;34.26;101574.78;4265327;27;19960;-58
2024/03/06 06:57:54;;;;;;;;;;;;;;;20.25;34.40;101580.13;4265558;27;20293;-57
2024/03/06 06:59:55;;;;;;;;;;;;;;;20.23;34.32;101580.22;4265716;27;20009;-57
2024/03/06 07:01:57;;;;;;;;;;;;;;;20.23;34.42;101584.69;4265362;27;19979;-58
2024/03/06 07:03:59;;;;;;;;;;;;;;;20.23;34.52;101587.34;4246809;27;20413;-58
2024/03/06 07:06:00;;;;;;;;;;;;;;;20.20;34.33;101593.75;4265330;27;19955;-57
2024/03/06 07:08:07;;;;;;;;;;;;;;;20.22;34.50;101594.53;4265306;27;20336;-59
2024/03/06 07:10:08;;;;;;;;;;;;;;;20.23;34.51;101593.56;4264977;27;20339;-54
2024/03/06 07:12:15;;;;;;;;;;;;;;;20.23;34.48;101595.38;4265420;27;19925;-57
2024/03/06 07:14:16;;;;;;;;;;;;;;;20.22;34.43;101599.88;4265242;27;19926;-57
2024/03/06 07:16:19;;;;;;;;;;;;;;;20.20;34.42;101599.09;4265349;27;19918;-57
2024/03/06 07:18:20;;;;;;;;;;;;;;;20.19;34.35;101605.38;4265259;27;19925;-57
2024/03/06 07:20:22;;;;;;;;;;;;;;;20.20;34.12;101601.78;4265159;27;19933;-58
2024/03/06 07:22:24;;;;;;;;;;;;;;;20.21;34.28;101598.16;4265476;27;19927;-57
2024/03/06 07:24:25;;;;;;;;;;;;;;;20.23;34.39;101611.41;4265137;27;19919;-57
2024/03/06 07:26:29;;;;;;;;;;;;;;;20.21;34.44;101600.81;4265227;27;20017;-57
2024/03/06 07:28:31;;;;;;;;;;;;;;;20.22;34.31;101610.56;4265206;27;20374;-57
2024/03/06 07:30:33;;;;;;;;;;;;;;;20.24;34.48;101605.09;4264981;27;20010;-57
2024/03/06 07:32:34;;;;;;;;;;;;;;;20.22;34.20;101610.56;4265396;27;19946;-57
2024/03/06 07:34:36;;;;;;;;;;;;;;;20.25;34.41;101610.34;4265140;27;19971;-57
2024/03/06 07:36:38;;;;;;;;;;;;;;;20.23;34.43;101616.75;4265058;27;19919;-56
2024/03/06 07:38:39;;;;;;;;;;;;;;;20.20;34.22;101619.63;4264803;27;20349;-56
2024/03/06 07:40:43;;;;;;;;;;;;;;;20.22;34.44;101625.69;4264974;27;19990;-56
2024/03/06 07:42:44;;;;;;;;;;;;;;;20.23;34.20;101616.75;4265125;27;19922;-56
2024/03/06 07:44:46;;;;;;;;;;;;;;;20.23;34.39;101628.31;4265118;27;19919;-57
2024/03/06 07:46:48;;;;;;;;;;;;;;;20.21;34.25;101632.03;4264998;27;19919;-57
2024/03/06 07:48:51;;;;;;;;;;;;;;;20.21;34.31;101630.19;4264913;27;19919;-57
2024/03/06 07:50:52;;;;;;;;;;;;;;;20.21;34.48;101643.56;4264782;27;20381;-57
2024/03/06 07:52:55;;;;;;;;;;;;;;;20.23;34.24;101647.00;4264615;27;20014;-57
2024/03/06 07:54:56;;;;;;;;;;;;;;;20.26;34.36;101648.63;4265169;27;19919;-57
2024/03/06 07:56:58;;;;;;;;;;;;;;;20.26;34.25;101649.47;4264956;27;20324;-56
2024/03/06 07:59:00;;;;;;;;;;;;;;;20.27;34.37;101645.00;4264750;27;19950;-57
2024/03/06 08:01:02;;;;;;;;;;;;;;;20.27;34.13;101647.66;4265025;27;20301;-57
2024/03/06 08:03:03;;;;;;;;;;;;;;;20.24;34.34;101654.06;4264935;27;19966;-57
2024/03/06 08:05:05;;;;;;;;;;;;;;;20.24;34.18;101650.53;4264931;27;19948;-57
2024/03/06 08:07:06;;;;;;;;;;;;;;;20.23;34.51;101652.34;4264725;27;19926;-57
2024/03/06 08:09:09;;;;;;;;;;;;;;;20.23;34.26;101655.00;4264327;27;19919;-57
2024/03/06 08:11:11;;;;;;;;;;;;;;;20.24;34.51;101655.84;4264866;27;20002;-58
2024/03/06 08:13:13;;;;;;;;;;;;;;;20.26;34.38;101659.31;4264766;27;19926;-58
2024/03/06 08:15:15;;;;;;;;;;;;;;;20.23;34.33;101655.00;4264812;27;19923;-57
2024/03/06 08:17:16;;;;;;;;;;;;;;;20.25;34.32;101653.09;4267314;27;20013;-57
2024/03/06 08:19:18;;;;;;;;;;;;;;;20.25;34.25;101665.59;4268255;27;19918;-57
2024/03/06 08:21:20;;;;;;;;;;;;;;;20.29;34.17;101663.59;4268188;27;19919;-57
2024/03/06 08:23:21;;;;;;;;;;;;;;;20.26;34.29;101667.31;4267994;27;19955;-57
2024/03/06 08:25:23;;;;;;;;;;;;;;;20.28;34.35;101668.09;4268152;27;19919;-57
2024/03/06 08:27:24;;;;;;;;;;;;;;;20.25;34.21;101663.78;4268113;27;19971;-57
2024/03/06 08:29:26;;;;;;;;;;;;;;;20.24;34.20;101672.75;4267854;27;19919;-57
2024/03/06 08:31:27;;;;;;;;;;;;;;;20.25;34.16;101668.28;4268022;27;19919;-57
2024/03/06 08:33:29;;;;;;;;;;;;;;;20.26;34.25;101673.50;4268015;27;19919;-57
2024/03/06 08:35:30;;;;;;;;;;;;;;;20.27;34.29;101674.38;4267795;27;19943;-56
2024/03/06 08:37:33;;;;;;;;;;;;;;;20.24;34.23;101680.78;4267582;27;19919;-57
2024/03/06 08:39:34;;;;;;;;;;;;;;;20.25;34.34;101678.94;4267809;27;20383;-57
2024/03/06 08:41:36;;;;;;;;;;;;;;;20.25;34.20;101687.81;4267863;27;19919;-57
2024/03/06 08:43:38;;;;;;;;;;;;;;;20.27;34.16;101691.25;4249391;27;20010;-57
2024/03/06 08:45:39;;;;;;;;;;;;;;;20.29;34.19;101691.16;4267933;27;19919;-57
2024/03/06 08:47:41;;;;;;;;;;;;;;;20.31;34.10;101697.28;4267632;27;19919;-57
2024/03/06 08:49:43;;;;;;;;;;;;;;;20.32;33.91;101692.81;4267900;27;20643;-58
2024/03/06 08:51:45;;;;;;;;;;;;;;;20.30;34.47;101692.03;4248967;27;20405;-57
2024/03/06 08:53:48;;;;;;;;;;;;;;;20.30;34.29;101700.03;4267515;27;20468;-57
2024/03/06 08:55:49;;;;;;;;;;;;;;;20.28;34.28;101694.81;4267660;27;20377;-56
2024/03/06 08:57:52;;;;;;;;;;;;;;;20.28;34.31;101708.16;4267649;27;19919;-57
2024/03/06 08:59:54;;;;;;;;;;;;;;;20.25;34.25;101701.16;4249076;27;19941;-57
2024/03/06 09:01:57;;;;;;;;;;;;;;;20.25;34.63;101703.00;4267342;27;19930;-57
2024/03/06 09:03:59;;;;;;;;;;;;;;;20.26;34.28;101705.56;4267314;27;20292;-58
2024/03/06 09:06:02;;;;;;;;;;;;;;;20.30;34.14;101711.56;4266924;27;19919;-57
2024/03/06 09:08:04;;;;;;;;;;;;;;;20.29;34.21;101703.66;4254001;27;19919;-57
2024/03/06 09:10:10;;;;;;;;;;;;;;;20.30;34.34;101713.41;4250253;27;19919;-57
2024/03/06 09:12:14;;;;;;;;;;;;;;;20.30;34.81;101714.25;4248367;27;19927;-58
2024/03/06 09:14:16;;;;;;;;;;;;;;;20.19;36.04;101716.72;4246913;27;19934;-55
2024/03/06 09:16:18;;;;;;;;;;;;;;;20.13;36.49;101719.78;4249859;27;19945;-57
2024/03/06 09:18:19;;;;;;;;;;;;;;;20.08;36.59;101720.88;4250087;27;19980;-59
2024/03/06 09:20:24;;;;;;;;;;;;;;;20.07;37.78;101721.88;4249704;27;20385;-58
2024/03/06 09:22:25;;;;;;;;;;;;;;;20.06;37.41;101730.81;4247963;27;19931;-58
2024/03/06 09:24:28;;;;;;;;;;;;;;;20.06;35.89;101725.47;4246033;27;20318;-58
2024/03/06 09:26:29;;;;;;;;;;;;;;;20.05;35.67;101720.22;4240323;27;19920;-59
2024/03/06 09:28:31;;;;;;;;;;;;;;;19.98;35.62;101722.41;4240206;27;19920;-59
2024/03/06 09:30:32;;;;;;;;;;;;;;;19.95;35.41;101723.44;4242728;27;20014;-59
2024/03/06 09:32:33;;;;;;;;;;;;;;;19.93;35.43;101722.66;4240441;27;20281;-57
2024/03/06 09:34:36;;;;;;;;;;;;;;;19.91;35.01;101724.56;4244870;27;20037;-59
2024/03/06 09:36:44;;;;;;;;;;;;;;;19.88;34.96;101718.53;4249531;27;19920;-58
2024/03/06 09:38:46;;;;;;;;;;;;;;;19.88;34.84;101723.88;4249336;27;19970;-60
2024/03/06 09:40:49;;;;;;;;;;;;;;;19.87;34.54;101723.03;4249429;27;19920;-58
2024/03/06 09:42:51;;;;;;;;;;;;;;;19.87;34.67;101723.03;4249745;27;19919;-56
2024/03/06 09:44:52;;;;;;;;;;;;;;;19.90;34.64;101724.66;4249650;27;19919;-58
2024/03/06 09:46:54;;;;;;;;;;;;;;;19.95;34.57;101725.25;4249334;27;19927;-58
2024/03/06 09:48:55;;;;;;;;;;;;;;;20.06;34.14;101724.59;4247891;27;19927;-58
2024/03/06 09:51:01;;;;;;;;;;;;;;;20.07;34.09;101726.31;4246821;27;20381;-57
2024/03/06 09:53:04;;;;;;;;;;;;;;;20.20;33.80;101726.47;4244248;27;20390;-58
2024/03/06 09:55:09;;;;;;;;;;;;;;;20.34;33.81;101717.59;4243933;27;20025;-60
2024/03/06 09:57:12;;;;;;;;;;;;;;;20.30;33.88;101721.41;4244056;27;20374;-61
2024/03/06 09:59:14;;;;;;;;;;;;;;;20.17;34.29;101719.50;4246233;27;19919;-60
2024/03/06 10:01:16;;;;;;;;;;;;;;;20.08;33.96;101731.56;4244909;27;19924;-59
2024/03/06 10:03:18;;;;;;;;;;;;;;;20.05;34.27;101730.88;4240271;27;19919;-62
2024/03/06 10:05:23;;;;;;;;;;;;;;;20.02;34.11;101734.59;4245354;27;19919;-60
2024/03/06 10:07:29;;;;;;;;;;;;;;;19.97;34.15;101733.19;4234530;27;19919;-58
2024/03/06 10:09:33;;;;;;;;;;;;;;;19.90;33.90;101736.22;4231820;28;19919;-58
2024/03/06 10:11:38;;;;;;;;;;;;;;;19.86;34.05;101737.31;4241431;27;19973;-58
2024/03/06 10:13:39;;;;;;;;;;;;;;;19.83;33.91;101734.81;4247241;27;19919;-59
2024/03/06 10:15:41;;;;;;;;;;;;;;;19.75;34.09;101737.91;4247947;27;19923;-59
2024/03/06 10:17:45;;;;;;;;;;;;;;;19.71;34.12;101744.41;4247360;27;19919;-59
2024/03/06 10:19:51;;;;;;;;;;;;;;;19.69;34.20;101743.63;4231278;28;19955;-59
2024/03/06 10:21:53;;;;;;;;;;;;;;;19.67;34.51;101752.66;4242319;27;19919;-59
2024/03/06 10:23:57;;;;;;;;;;;;;;;19.64;34.28;101748.38;4239835;27;19919;-60
2024/03/06 10:25:58;;;;;;;;;;;;;;;19.62;34.42;101742.25;4247672;27;19919;-59
2024/03/06 10:28:07;;;;;;;;;;;;;;;19.59;34.56;101751.28;4245102;27;19923;-59
2024/03/06 10:30:11;;;;;;;;;;;;;;;19.59;34.66;101739.78;4242250;27;19965;-59
2024/03/06 10:32:18;;;;;;;;;;;;;;;19.62;34.14;101744.91;4245655;27;19927;-59
2024/03/06 10:34:20;;;;;;;;;;;;;;;19.66;34.51;101742.94;4247830;27;19919;-59